Time;durP1;ratioP1;P1;durP2;ratioP2;P2;SDS_P1;SDS_P2;PMS_P1;PMS_P2;Temp;Humidity;BMP_temperature;BMP_pressure;BME280_temperature;BME280_humidity;BME280_pressure;Samples;Min_cycle;Max_cycle;Signal;HPM_P1;HPM_P2
2021/09/22 00:01:41;;;;;;;8.13;2.70;;;;;;;;;;5024000;28;20028;-77
2021/09/22 00:04:07;;;;;;;12.90;3.10;;;;;;;;;;5024092;28;20025;-78
2021/09/22 00:06:33;;;;;;;6.90;2.95;;;;;;;;;;5022935;28;20029;-77
2021/09/22 00:08:59;;;;;;;8.27;3.40;;;;;;;;;;5024056;28;20104;-77
2021/09/22 00:11:26;;;;;;;8.52;3.78;;;;;;;;;;5023824;28;20025;-79
2021/09/22 00:13:52;;;;;;;8.90;3.35;;;;;;;;;;5004136;28;20515;-78
2021/09/22 00:16:18;;;;;;;8.95;3.22;;;;;;;;;;5022371;28;20058;-78
2021/09/22 00:18:44;;;;;;;5.60;2.85;;;;;;;;;;5023542;28;20030;-78
2021/09/22 00:21:10;;;;;;;6.75;2.33;;;;;;;;;;5019808;28;20567;-78
2021/09/22 00:23:37;;;;;;;6.57;2.53;;;;;;;;;;5023440;28;20064;-77
2021/09/22 00:26:03;;;;;;;6.22;2.65;;;;;;;;;;5011716;28;20501;-78
2021/09/22 00:28:31;;;;;;;8.15;2.60;;;;;;;;;;5001948;28;20033;-78
2021/09/22 00:30:57;;;;;;;6.82;2.80;;;;;;;;;;5003729;28;20044;-78
2021/09/22 00:33:23;;;;;;;8.93;2.60;;;;;;;;;;5004811;28;20068;-78
2021/09/22 00:35:50;;;;;;;5.80;2.70;;;;;;;;;;5021477;28;20026;-78
2021/09/22 00:38:16;;;;;;;5.70;2.70;;;;;;;;;;5021773;28;20022;-78
2021/09/22 00:40:42;;;;;;;7.25;2.97;;;;;;;;;;5023661;28;20030;-78
2021/09/22 00:43:08;;;;;;;8.73;2.50;;;;;;;;;;5023037;28;20030;-78
2021/09/22 00:45:34;;;;;;;7.30;2.25;;;;;;;;;;5023388;28;20674;-78
2021/09/22 00:48:00;;;;;;;6.00;2.60;;;;;;;;;;5022711;28;20037;-78
2021/09/22 00:50:27;;;;;;;6.32;2.42;;;;;;;;;;5022572;28;20029;-78
2021/09/22 00:52:53;;;;;;;5.53;2.63;;;;;;;;;;5020790;28;20037;-78
2021/09/22 00:55:19;;;;;;;5.30;2.88;;;;;;;;;;5022539;28;20045;-78
2021/09/22 00:57:50;;;;;;;6.22;2.65;;;;;;;;;;5021007;28;20033;-78
2021/09/22 01:00:16;;;;;;;8.52;2.70;;;;;;;;;;5021697;28;20362;-78
2021/09/22 01:02:47;;;;;;;5.40;2.40;;;;;;;;;;5022621;28;20029;-77
2021/09/22 01:05:13;;;;;;;6.80;2.42;;;;;;;;;;5022838;28;20030;-78
2021/09/22 01:07:39;;;;;;;6.28;2.92;;;;;;;;;;5022147;28;20031;-78
2021/09/22 01:10:06;;;;;;;7.75;2.60;;;;;;;;;;5022093;28;20545;-78
2021/09/22 01:12:32;;;;;;;6.95;2.55;;;;;;;;;;5022223;28;20029;-78
2021/09/22 01:14:58;;;;;;;5.80;2.72;;;;;;;;;;5020771;28;20314;-77
2021/09/22 01:17:26;;;;;;;6.43;2.83;;;;;;;;;;5022521;28;20055;-78
2021/09/22 01:19:54;;;;;;;9.85;2.70;;;;;;;;;;5022789;28;20044;-78
2021/09/22 01:22:20;;;;;;;4.50;2.35;;;;;;;;;;5022756;28;20028;-78
2021/09/22 01:24:46;;;;;;;5.13;2.40;;;;;;;;;;5022019;28;20029;-78
2021/09/22 01:27:12;;;;;;;9.15;2.75;;;;;;;;;;5003052;28;20029;-78
2021/09/22 01:29:39;;;;;;;8.10;3.15;;;;;;;;;;5022569;28;20029;-79
2021/09/22 01:32:05;;;;;;;10.23;3.10;;;;;;;;;;5013172;28;20029;-78
2021/09/22 01:34:31;;;;;;;9.05;2.97;;;;;;;;;;5002930;28;20496;-77
2021/09/22 01:36:57;;;;;;;4.45;2.65;;;;;;;;;;5002508;28;20033;-78
2021/09/22 01:39:23;;;;;;;6.45;2.85;;;;;;;;;;5019444;28;20535;-78
2021/09/22 01:41:51;;;;;;;6.97;2.75;;;;;;;;;;5020753;28;20026;-78
2021/09/22 01:44:18;;;;;;;7.30;2.60;;;;;;;;;;5022682;28;20177;-77
2021/09/22 01:46:44;;;;;;;5.63;2.20;;;;;;;;;;5021487;28;20046;-78
2021/09/22 01:49:10;;;;;;;6.10;2.45;;;;;;;;;;5020728;28;20109;-78
2021/09/22 01:51:36;;;;;;;5.03;2.65;;;;;;;;;;5021731;28;20047;-77
2021/09/22 01:54:02;;;;;;;13.18;2.60;;;;;;;;;;5022135;28;20037;-78
2021/09/22 01:56:28;;;;;;;8.00;2.53;;;;;;;;;;5020223;28;20018;-77
2021/09/22 01:58:54;;;;;;;4.55;2.50;;;;;;;;;;5020544;28;20021;-78
2021/09/22 02:01:20;;;;;;;5.65;2.20;;;;;;;;;;5021861;28;20029;-78
2021/09/22 02:03:47;;;;;;;9.13;2.63;;;;;;;;;;5022092;28;20033;-78
2021/09/22 02:06:15;;;;;;;6.57;2.70;;;;;;;;;;5022273;28;20068;-78
2021/09/22 02:08:43;;;;;;;10.63;3.17;;;;;;;;;;5021599;28;20108;-77
2021/09/22 02:11:10;;;;;;;6.25;2.45;;;;;;;;;;5020504;28;20029;-78
2021/09/22 02:13:36;;;;;;;10.55;3.33;;;;;;;;;;5021775;28;20038;-78
2021/09/22 02:16:02;;;;;;;6.57;2.88;;;;;;;;;;5021646;28;20026;-78
2021/09/22 02:18:28;;;;;;;8.50;3.15;;;;;;;;;;5020311;28;20030;-78
2021/09/22 02:20:54;;;;;;;6.75;3.75;;;;;;;;;;5026022;28;20025;-78
2021/09/22 02:23:21;;;;;;;7.35;3.00;;;;;;;;;;5026038;28;20393;-78
2021/09/22 02:25:47;;;;;;;5.80;2.60;;;;;;;;;;5025646;28;20064;-78
2021/09/22 02:28:13;;;;;;;6.28;2.85;;;;;;;;;;5025743;28;20030;-78
2021/09/22 02:30:39;;;;;;;7.88;2.90;;;;;;;;;;5024409;28;20065;-78
2021/09/22 02:33:05;;;;;;;9.30;2.65;;;;;;;;;;5025396;28;20071;-78
2021/09/22 02:35:31;;;;;;;7.43;2.30;;;;;;;;;;5025916;28;20049;-78
2021/09/22 02:37:58;;;;;;;6.75;2.60;;;;;;;;;;5024997;28;20095;-78
2021/09/22 02:40:24;;;;;;;6.35;3.20;;;;;;;;;;5024242;28;20067;-78
2021/09/22 02:42:50;;;;;;;11.02;2.47;;;;;;;;;;5025416;28;20026;-77
2021/09/22 02:45:16;;;;;;;11.23;4.60;;;;;;;;;;5025344;28;20034;-78
2021/09/22 02:47:43;;;;;;;12.13;6.75;;;;;;;;;;5024903;28;20069;-78
2021/09/22 02:50:11;;;;;;;10.88;6.80;;;;;;;;;;5023975;28;20025;-78
2021/09/22 02:52:37;;;;;;;11.95;7.13;;;;;;;;;;5025313;28;20037;-78
2021/09/22 02:55:04;;;;;;;12.20;7.50;;;;;;;;;;5010049;28;20060;-78
2021/09/22 02:57:30;;;;;;;12.20;7.30;;;;;;;;;;5004061;28;20054;-77
2021/09/22 02:59:56;;;;;;;12.52;7.07;;;;;;;;;;5005586;28;20029;-77
2021/09/22 03:02:22;;;;;;;11.23;7.03;;;;;;;;;;5007163;28;20047;-77
2021/09/22 03:04:48;;;;;;;9.68;5.22;;;;;;;;;;5022930;28;20597;-77
2021/09/22 03:07:14;;;;;;;11.07;6.72;;;;;;;;;;5022531;28;20638;-77
2021/09/22 03:09:40;;;;;;;9.10;5.10;;;;;;;;;;5023084;28;20095;-77
2021/09/22 03:12:07;;;;;;;11.05;5.07;;;;;;;;;;5022770;28;20029;-78
2021/09/22 03:14:33;;;;;;;11.43;4.35;;;;;;;;;;5021329;28;20654;-78
2021/09/22 03:16:59;;;;;;;10.32;4.47;;;;;;;;;;5023011;28;20507;-77
2021/09/22 03:19:25;;;;;;;6.57;2.72;;;;;;;;;;5024160;28;20033;-78
2021/09/22 03:21:51;;;;;;;5.85;2.88;;;;;;;;;;5008324;28;20029;-77
2021/09/22 03:24:17;;;;;;;6.03;2.80;;;;;;;;;;5025958;28;20031;-78
2021/09/22 03:26:43;;;;;;;5.88;2.65;;;;;;;;;;5025597;28;20029;-77
2021/09/22 03:29:10;;;;;;;5.40;2.63;;;;;;;;;;5023754;28;20044;-77
2021/09/22 03:31:36;;;;;;;7.13;2.92;;;;;;;;;;5006537;28;20676;-77
2021/09/22 03:34:02;;;;;;;8.05;3.22;;;;;;;;;;5024644;28;20084;-78
2021/09/22 03:36:28;;;;;;;8.43;2.88;;;;;;;;;;5024119;28;20024;-78
2021/09/22 03:38:54;;;;;;;6.50;2.90;;;;;;;;;;5024552;28;20033;-78
2021/09/22 03:41:20;;;;;;;5.72;2.53;;;;;;;;;;5022908;28;20040;-78
2021/09/22 03:43:46;;;;;;;7.13;2.63;;;;;;;;;;5024278;28;20036;-78
2021/09/22 03:46:13;;;;;;;9.77;3.10;;;;;;;;;;5006821;28;20107;-78
2021/09/22 03:48:39;;;;;;;6.63;2.70;;;;;;;;;;5024093;28;20029;-77
2021/09/22 03:51:05;;;;;;;6.75;2.85;;;;;;;;;;5024134;28;20493;-77
2021/09/22 03:53:32;;;;;;;5.00;2.85;;;;;;;;;;5024615;28;20042;-77
2021/09/22 03:55:58;;;;;;;6.15;2.72;;;;;;;;;;5023249;28;20022;-77
2021/09/22 03:58:24;;;;;;;5.35;2.53;;;;;;;;;;5024443;28;20045;-78
2021/09/22 04:00:50;;;;;;;8.30;2.75;;;;;;;;;;5023751;28;20033;-77
2021/09/22 04:03:16;;;;;;;4.80;2.38;;;;;;;;;;5023954;28;20017;-77
2021/09/22 04:05:42;;;;;;;6.65;2.67;;;;;;;;;;5024574;28;20024;-77
2021/09/22 04:08:08;;;;;;;5.35;2.60;;;;;;;;;;5023193;28;20035;-78
2021/09/22 04:10:35;;;;;;;7.88;2.95;;;;;;;;;;5009511;28;20045;-78
2021/09/22 04:13:01;;;;;;;6.38;2.95;;;;;;;;;;5017405;28;20044;-78
2021/09/22 04:15:27;;;;;;;4.57;2.60;;;;;;;;;;5021696;28;20033;-78
2021/09/22 04:17:53;;;;;;;5.50;2.40;;;;;;;;;;5021685;28;20104;-78
2021/09/22 04:20:19;;;;;;;6.13;2.65;;;;;;;;;;5000874;28;20026;-77
2021/09/22 04:22:46;;;;;;;4.88;2.55;;;;;;;;;;5001820;28;20028;-78
2021/09/22 04:25:12;;;;;;;5.63;2.47;;;;;;;;;;5001742;28;20030;-78
2021/09/22 04:27:38;;;;;;;10.02;2.97;;;;;;;;;;5001925;28;20324;-78
2021/09/22 04:30:05;;;;;;;6.68;2.20;;;;;;;;;;5021774;28;20611;-78
2021/09/22 04:32:31;;;;;;;6.28;2.60;;;;;;;;;;5021911;28;20035;-77
2021/09/22 04:34:58;;;;;;;6.13;2.60;;;;;;;;;;5024307;28;20532;-78
2021/09/22 04:37:24;;;;;;;6.22;2.45;;;;;;;;;;5026302;28;20113;-78
2021/09/22 04:39:52;;;;;;;6.07;2.28;;;;;;;;;;5026495;28;20037;-78
2021/09/22 04:42:18;;;;;;;5.20;2.80;;;;;;;;;;5025655;28;20017;-77
2021/09/22 04:44:44;;;;;;;4.05;1.92;;;;;;;;;;5024938;28;20029;-78
2021/09/22 04:47:11;;;;;;;13.38;2.25;;;;;;;;;;5008997;28;20056;-78
2021/09/22 04:49:37;;;;;;;11.18;2.97;;;;;;;;;;5006310;28;20052;-78
2021/09/22 04:52:04;;;;;;;6.60;2.50;;;;;;;;;;5005878;28;20022;-77
2021/09/22 04:54:30;;;;;;;2.72;2.08;;;;;;;;;;5006177;28;20037;-78
2021/09/22 04:56:56;;;;;;;8.88;2.47;;;;;;;;;;5004827;28;20026;-77
2021/09/22 04:59:22;;;;;;;8.35;2.60;;;;;;;;;;5006858;28;20079;-78
2021/09/22 05:01:48;;;;;;;4.20;2.15;;;;;;;;;;5006471;28;20033;-78
2021/09/22 05:04:14;;;;;;;5.30;2.00;;;;;;;;;;5006450;28;20138;-78
2021/09/22 05:06:41;;;;;;;6.28;2.50;;;;;;;;;;5004873;28;20024;-78
2021/09/22 05:09:07;;;;;;;6.38;2.65;;;;;;;;;;5006479;28;20101;-78
2021/09/22 05:11:33;;;;;;;7.80;2.50;;;;;;;;;;5004435;28;20018;-78
2021/09/22 05:13:59;;;;;;;4.50;2.40;;;;;;;;;;5006426;28;20033;-78
2021/09/22 05:16:25;;;;;;;9.38;3.15;;;;;;;;;;5034789;28;20029;-75
2021/09/22 05:18:52;;;;;;;6.63;2.38;;;;;;;;;;5045506;28;20104;-74
2021/09/22 05:21:18;;;;;;;7.50;4.20;;;;;;;;;;5020103;28;20484;-75
2021/09/22 05:23:44;;;;;;;10.52;6.05;;;;;;;;;;5005730;28;20032;-75
2021/09/22 05:26:10;;;;;;;11.52;5.88;;;;;;;;;;5005830;28;20029;-74
2021/09/22 05:28:36;;;;;;;6.07;3.78;;;;;;;;;;5007989;28;20026;-74
2021/09/22 05:31:02;;;;;;;10.32;4.20;;;;;;;;;;5021666;28;20025;-75
2021/09/22 05:33:29;;;;;;;7.78;4.55;;;;;;;;;;4994614;28;20128;-75
2021/09/22 05:35:55;;;;;;;8.55;4.78;;;;;;;;;;5005760;28;20145;-75
2021/09/22 05:38:21;;;;;;;9.02;5.22;;;;;;;;;;5005027;28;20022;-74
2021/09/22 05:40:49;;;;;;;8.35;4.88;;;;;;;;;;5003848;28;20468;-74
2021/09/22 05:43:15;;;;;;;10.73;5.70;;;;;;;;;;5018350;28;20021;-74
2021/09/22 05:45:41;;;;;;;15.07;6.28;;;;;;;;;;5018213;28;20046;-74
2021/09/22 05:48:07;;;;;;;10.40;5.82;;;;;;;;;;5044854;28;20458;-75
2021/09/22 05:50:33;;;;;;;13.73;6.03;;;;;;;;;;5035097;28;20026;-74
2021/09/22 05:52:59;;;;;;;11.30;6.63;;;;;;;;;;5024293;28;20035;-76
2021/09/22 05:55:26;;;;;;;14.55;6.50;;;;;;;;;;5024553;28;20092;-75
2021/09/22 05:57:52;;;;;;;11.05;4.90;;;;;;;;;;5028059;28;20021;-75
2021/09/22 06:00:18;;;;;;;8.93;4.40;;;;;;;;;;5021427;28;20047;-75
2021/09/22 06:02:44;;;;;;;11.50;3.88;;;;;;;;;;5020154;28;20029;-74
2021/09/22 06:05:11;;;;;;;8.88;3.60;;;;;;;;;;5022156;28;20062;-75
2021/09/22 06:07:37;;;;;;;10.30;3.88;;;;;;;;;;5022255;28;20155;-74
2021/09/22 06:10:04;;;;;;;7.60;3.75;;;;;;;;;;5022622;28;20022;-75
2021/09/22 06:12:30;;;;;;;10.23;3.88;;;;;;;;;;5022530;28;20022;-74
2021/09/22 06:14:56;;;;;;;4.38;2.95;;;;;;;;;;5018121;28;20100;-75
2021/09/22 06:17:22;;;;;;;4.13;3.05;;;;;;;;;;5042655;28;20104;-75
2021/09/22 06:19:48;;;;;;;6.00;2.40;;;;;;;;;;5033660;28;20025;-75
2021/09/22 06:22:15;;;;;;;9.15;2.90;;;;;;;;;;5021065;28;20372;-75
2021/09/22 06:24:41;;;;;;;10.02;3.17;;;;;;;;;;5022589;28;20021;-75
2021/09/22 06:27:08;;;;;;;10.95;3.53;;;;;;;;;;5022064;28;20082;-77
2021/09/22 06:29:34;;;;;;;7.07;2.58;;;;;;;;;;5014230;28;20033;-74
2021/09/22 06:32:00;;;;;;;10.38;3.30;;;;;;;;;;5003383;28;20155;-75
2021/09/22 06:34:26;;;;;;;8.07;2.72;;;;;;;;;;5017640;28;20067;-74
2021/09/22 06:36:52;;;;;;;4.32;2.17;;;;;;;;;;5020732;28;20057;-75
2021/09/22 06:39:19;;;;;;;5.20;3.08;;;;;;;;;;5022842;28;20043;-75
2021/09/22 06:41:45;;;;;;;4.50;2.58;;;;;;;;;;5020622;28;20028;-75
2021/09/22 06:44:11;;;;;;;6.15;2.78;;;;;;;;;;5020487;28;20022;-75
2021/09/22 06:46:37;;;;;;;9.02;3.53;;;;;;;;;;5019137;28;20095;-75
2021/09/22 06:49:03;;;;;;;5.70;2.90;;;;;;;;;;5020580;28;20374;-75
2021/09/22 06:51:30;;;;;;;7.32;3.20;;;;;;;;;;5020439;28;20497;-76
2021/09/22 06:53:56;;;;;;;7.70;3.28;;;;;;;;;;4988826;28;20042;-75
2021/09/22 06:56:24;;;;;;;4.65;2.70;;;;;;;;;;4998681;28;20014;-75
2021/09/22 06:58:50;;;;;;;6.63;2.80;;;;;;;;;;4999051;28;20457;-76
2021/09/22 07:01:17;;;;;;;4.57;2.78;;;;;;;;;;4998907;28;20030;-75
2021/09/22 07:03:43;;;;;;;6.20;2.95;;;;;;;;;;5003106;28;20607;-75
2021/09/22 07:06:11;;;;;;;6.20;2.92;;;;;;;;;;5002868;28;20125;-76
2021/09/22 07:08:38;;;;;;;7.88;3.60;;;;;;;;;;5007064;28;20107;-75
2021/09/22 07:11:04;;;;;;;4.68;3.15;;;;;;;;;;5003602;28;20022;-75
2021/09/22 07:13:32;;;;;;;7.47;3.40;;;;;;;;;;5004518;28;20105;-74
2021/09/22 07:15:58;;;;;;;4.03;3.03;;;;;;;;;;5002595;28;20022;-74
2021/09/22 07:18:25;;;;;;;7.28;3.72;;;;;;;;;;5004117;28;20022;-73
2021/09/22 07:20:51;;;;;;;10.75;3.95;;;;;;;;;;5004537;28;20032;-74
2021/09/22 07:23:17;;;;;;;10.15;3.83;;;;;;;;;;5004195;28;20022;-75
2021/09/22 07:25:43;;;;;;;9.13;3.80;;;;;;;;;;5002453;28;20387;-75
2021/09/22 07:28:09;;;;;;;6.45;3.42;;;;;;;;;;5003501;28;20462;-75
2021/09/22 07:30:36;;;;;;;7.60;4.20;;;;;;;;;;5003657;28;20022;-75
2021/09/22 07:33:02;;;;;;;7.32;3.97;;;;;;;;;;5018262;28;20618;-74
2021/09/22 07:35:28;;;;;;;14.93;4.35;;;;;;;;;;5009287;28;20075;-75
2021/09/22 07:37:55;;;;;;;7.78;4.60;;;;;;;;;;5005873;28;20018;-75
2021/09/22 07:40:21;;;;;;;9.55;4.63;;;;;;;;;;5012623;28;20102;-75
2021/09/22 07:42:47;;;;;;;10.90;4.88;;;;;;;;;;5043703;28;20337;-74
2021/09/22 07:45:14;;;;;;;8.25;4.97;;;;;;;;;;5028428;28;20497;-75
2021/09/22 07:47:40;;;;;;;10.60;5.10;;;;;;;;;;5021307;28;20029;-75
2021/09/22 07:50:08;;;;;;;6.47;5.03;;;;;;;;;;5023200;28;20112;-75
2021/09/22 07:52:35;;;;;;;6.75;4.90;;;;;;;;;;5023458;28;20022;-74
2021/09/22 07:55:02;;;;;;;11.35;7.10;;;;;;;;;;5022712;28;20037;-74
2021/09/22 07:57:28;;;;;;;8.77;6.25;;;;;;;;;;5025067;28;20093;-75
2021/09/22 07:59:55;;;;;;;9.90;7.60;;;;;;;;;;5021320;28;20539;-75
2021/09/22 08:02:22;;;;;;;12.48;6.95;;;;;;;;;;5022429;28;20099;-76
2021/09/22 08:04:48;;;;;;;10.95;6.55;;;;;;;;;;5022952;28;20120;-75
2021/09/22 08:07:15;;;;;;;10.38;6.05;;;;;;;;;;5022610;28;20024;-75
2021/09/22 08:09:41;;;;;;;14.23;10.38;;;;;;;;;;5003678;28;20409;-75
2021/09/22 08:12:08;;;;;;;21.33;17.17;;;;;;;;;;5016870;28;20497;-75
2021/09/22 08:14:35;;;;;;;26.27;18.08;;;;;;;;;;5022878;28;20037;-75
2021/09/22 08:17:01;;;;;;;24.95;20.00;;;;;;;;;;5021966;28;20421;-75
2021/09/22 08:19:27;;;;;;;29.15;22.77;;;;;;;;;;5021082;28;20492;-75
2021/09/22 08:21:54;;;;;;;21.02;16.17;;;;;;;;;;5022930;28;20346;-75
2021/09/22 08:24:20;;;;;;;10.93;7.97;;;;;;;;;;5022518;28;20025;-74
2021/09/22 08:26:48;;;;;;;12.00;7.53;;;;;;;;;;5022873;28;20014;-75
2021/09/22 08:29:14;;;;;;;10.18;6.90;;;;;;;;;;5022428;28;20067;-75
2021/09/22 08:31:41;;;;;;;10.55;7.22;;;;;;;;;;5002775;28;20121;-74
2021/09/22 08:34:07;;;;;;;10.27;6.05;;;;;;;;;;5024480;28;20545;-75
2021/09/22 08:36:33;;;;;;;9.27;5.28;;;;;;;;;;5022291;28;20024;-75
2021/09/22 08:38:59;;;;;;;6.53;4.28;;;;;;;;;;5035611;28;20124;-75
2021/09/22 08:41:25;;;;;;;7.43;4.88;;;;;;;;;;5020618;28;20935;-76
2021/09/22 08:43:52;;;;;;;6.95;4.68;;;;;;;;;;5022003;28;20176;-77
2021/09/22 08:46:19;;;;;;;6.18;4.20;;;;;;;;;;5021919;28;20728;-75
2021/09/22 08:48:45;;;;;;;8.68;4.65;;;;;;;;;;5021963;28;20105;-77
2021/09/22 08:51:11;;;;;;;5.78;3.65;;;;;;;;;;5020359;28;20067;-75
2021/09/22 08:53:37;;;;;;;5.53;4.30;;;;;;;;;;5017279;28;20414;-76
2021/09/22 08:56:03;;;;;;;11.65;4.43;;;;;;;;;;5020291;28;20022;-76
2021/09/22 08:58:30;;;;;;;8.63;3.83;;;;;;;;;;5023332;28;20140;-76
2021/09/22 09:01:10;;;;;;;7.38;3.75;;;;;;;;;;5021872;28;20021;-76
2021/09/22 09:03:40;;;;;;;10.40;3.35;;;;;;;;;;5021366;28;20226;-78
2021/09/22 09:06:15;;;;;;;8.15;3.58;;;;;;;;;;5020458;28;20500;-77
2021/09/22 09:08:42;;;;;;;9.13;3.13;;;;;;;;;;5021641;28;20036;-81
2021/09/22 09:11:08;;;;;;;10.95;3.05;;;;;;;;;;5023460;28;20032;-78
2021/09/22 09:13:51;;;;;;;8.98;3.35;;;;;;;;;;5021898;28;20528;-79
2021/09/22 09:16:22;;;;;;;7.22;2.83;;;;;;;;;;5021082;28;20033;-80
2021/09/22 09:18:50;;;;;;;5.63;3.05;;;;;;;;;;5015412;28;20026;-75
2021/09/22 09:21:16;;;;;;;6.38;3.17;;;;;;;;;;5000746;28;20041;-76
2021/09/22 09:24:08;;;;;;;7.10;3.08;;;;;;;;;;5000876;28;20029;-78
2021/09/22 09:26:37;;;;;;;9.02;3.40;;;;;;;;;;4999176;28;20034;-75
2021/09/22 09:29:06;;;;;;;6.95;3.05;;;;;;;;;;5000936;28;20018;-75
2021/09/22 09:31:33;;;;;;;4.90;2.95;;;;;;;;;;5000649;28;20474;-79
2021/09/22 09:34:01;;;;;;;4.95;2.80;;;;;;;;;;5003007;28;20134;-75
2021/09/22 09:36:32;;;;;;;6.28;3.05;;;;;;;;;;5000644;28;20033;-75
2021/09/22 09:39:02;;;;;;;10.33;4.00;;;;;;;;;;5001174;28;20025;-78
2021/09/22 09:41:55;;;;;;;6.05;3.67;;;;;;;;;;5001583;28;20097;-75
2021/09/22 09:44:23;;;;;;;8.18;3.47;;;;;;;;;;4998468;28;20141;-76
2021/09/22 09:46:50;;;;;;;7.07;3.35;;;;;;;;;;5000816;28;20549;-75
2021/09/22 09:49:37;;;;;;;6.97;3.85;;;;;;;;;;5001484;28;20540;-75
2021/09/22 09:52:03;;;;;;;7.97;4.05;;;;;;;;;;5001546;28;20506;-76
2021/09/22 09:54:36;;;;;;;9.27;4.20;;;;;;;;;;5000641;28;20402;-75
2021/09/22 09:57:16;;;;;;;8.18;4.07;;;;;;;;;;5000306;28;20026;-75
2021/09/22 09:59:52;;;;;;;7.07;4.05;;;;;;;;;;5002038;28;20498;-75
2021/09/22 10:02:25;;;;;;;9.45;4.00;;;;;;;;;;5002116;28;20620;-75
2021/09/22 10:04:52;;;;;;;10.25;4.55;;;;;;;;;;5001910;28;20033;-75
2021/09/22 10:07:18;;;;;;;8.93;4.60;;;;;;;;;;5001907;28;20033;-75
2021/09/22 10:09:45;;;;;;;10.23;4.68;;;;;;;;;;5003794;28;20377;-75
2021/09/22 10:12:12;;;;;;;9.20;5.28;;;;;;;;;;5002585;28;20018;-74
2021/09/22 10:14:39;;;;;;;12.88;5.15;;;;;;;;;;5002835;28;20038;-74
2021/09/22 10:17:06;;;;;;;13.35;4.88;;;;;;;;;;5012068;28;20032;-74
2021/09/22 10:19:33;;;;;;;7.43;4.53;;;;;;;;;;5012802;28;20509;-73
2021/09/22 10:21:59;;;;;;;6.78;4.05;;;;;;;;;;5019669;28;20027;-73
2021/09/22 10:24:25;;;;;;;7.88;5.20;;;;;;;;;;5020918;28;20025;-73
2021/09/22 10:26:52;;;;;;;13.07;5.50;;;;;;;;;;5021051;28;20067;-74
2021/09/22 10:29:19;;;;;;;9.15;5.43;;;;;;;;;;5021598;28;20026;-74
2021/09/22 10:31:46;;;;;;;8.82;5.18;;;;;;;;;;5021266;28;20033;-74
2021/09/22 10:34:25;;;;;;;7.32;4.60;;;;;;;;;;5021091;28;20039;-75
2021/09/22 10:36:51;;;;;;;12.40;5.10;;;;;;;;;;5019476;28;20029;-75
2021/09/22 10:39:37;;;;;;;6.93;4.18;;;;;;;;;;5021405;28;20032;-75
2021/09/22 10:42:21;;;;;;;8.43;4.93;;;;;;;;;;5007758;28;20026;-75
2021/09/22 10:44:48;;;;;;;12.20;5.80;;;;;;;;;;5022194;28;20148;-75
2021/09/22 10:47:28;;;;;;;14.43;5.93;;;;;;;;;;5022664;28;20057;-75
2021/09/22 10:49:55;;;;;;;7.18;5.05;;;;;;;;;;5021291;28;20187;-75
2021/09/22 10:52:30;;;;;;;11.07;5.47;;;;;;;;;;5022698;28;20552;-75
2021/09/22 10:55:07;;;;;;;7.75;5.35;;;;;;;;;;5022502;28;20041;-75
2021/09/22 10:57:33;;;;;;;8.35;5.97;;;;;;;;;;5020352;28;20546;-75
2021/09/22 11:00:10;;;;;;;9.68;5.47;;;;;;;;;;5022355;28;20033;-74
2021/09/22 11:02:53;;;;;;;7.45;5.43;;;;;;;;;;5021860;28;20022;-75
2021/09/22 11:05:44;;;;;;;8.82;5.53;;;;;;;;;;5021918;28;20057;-75
2021/09/22 11:08:12;;;;;;;8.15;5.50;;;;;;;;;;5019700;28;20092;-75
2021/09/22 11:10:52;;;;;;;9.95;5.47;;;;;;;;;;5028056;28;20021;-74
2021/09/22 11:13:21;;;;;;;5.60;4.95;;;;;;;;;;5016038;28;20764;-75
2021/09/22 11:15:48;;;;;;;8.82;5.78;;;;;;;;;;5020221;28;20040;-75
2021/09/22 11:18:18;;;;;;;9.63;6.60;;;;;;;;;;5021131;28;20539;-74
2021/09/22 11:20:53;;;;;;;5.68;5.07;;;;;;;;;;5021911;28;20056;-75
2021/09/22 11:23:21;;;;;;;9.07;5.55;;;;;;;;;;5006849;28;20025;-75
2021/09/22 11:25:47;;;;;;;6.00;5.30;;;;;;;;;;5000753;28;20087;-75
2021/09/22 11:28:13;;;;;;;7.45;5.45;;;;;;;;;;5008481;28;20033;-76
2021/09/22 11:30:44;;;;;;;8.30;5.53;;;;;;;;;;5017772;28;20118;-75
2021/09/22 11:33:24;;;;;;;11.43;6.32;;;;;;;;;;5021726;28;20049;-75
2021/09/22 11:35:51;;;;;;;8.25;5.07;;;;;;;;;;5019777;28;20042;-76
2021/09/22 11:38:17;;;;;;;8.35;5.38;;;;;;;;;;5018563;28;20489;-75
2021/09/22 11:40:44;;;;;;;10.25;6.47;;;;;;;;;;5020608;28;20026;-75
2021/09/22 11:43:11;;;;;;;10.02;6.13;;;;;;;;;;5015458;28;20017;-75
2021/09/22 11:45:37;;;;;;;9.77;6.00;;;;;;;;;;5013505;28;20053;-76
2021/09/22 11:48:04;;;;;;;10.88;5.63;;;;;;;;;;5012873;28;20433;-75
2021/09/22 11:50:35;;;;;;;9.40;5.82;;;;;;;;;;5018637;28;20035;-75
2021/09/22 11:53:03;;;;;;;11.63;5.90;;;;;;;;;;5020649;28;20095;-74
2021/09/22 11:55:29;;;;;;;8.52;5.85;;;;;;;;;;5020524;28;20707;-75
2021/09/22 11:57:55;;;;;;;7.60;6.03;;;;;;;;;;5017528;28;20420;-75
2021/09/22 12:00:23;;;;;;;11.45;6.53;;;;;;;;;;5021114;28;20029;-75
2021/09/22 12:02:49;;;;;;;8.68;5.75;;;;;;;;;;5021467;28;20032;-75
2021/09/22 12:05:20;;;;;;;8.68;5.03;;;;;;;;;;5020838;28;20483;-75
2021/09/22 12:07:47;;;;;;;10.35;5.22;;;;;;;;;;5020465;28;20477;-75
2021/09/22 12:10:14;;;;;;;6.72;5.22;;;;;;;;;;5020755;28;20029;-75
2021/09/22 12:12:40;;;;;;;7.43;5.07;;;;;;;;;;5019370;28;20021;-75
2021/09/22 12:15:08;;;;;;;7.32;4.80;;;;;;;;;;5003033;28;20042;-75
2021/09/22 12:17:35;;;;;;;6.20;4.32;;;;;;;;;;5020668;28;20022;-74
2021/09/22 12:20:02;;;;;;;7.72;4.82;;;;;;;;;;5021288;28;20417;-75
2021/09/22 12:22:30;;;;;;;5.32;4.78;;;;;;;;;;5021218;28;20029;-75
2021/09/22 12:24:56;;;;;;;6.03;4.57;;;;;;;;;;5020802;28;20552;-74
2021/09/22 12:27:23;;;;;;;9.93;5.00;;;;;;;;;;5018962;28;20037;-75
2021/09/22 12:30:09;;;;;;;6.22;4.78;;;;;;;;;;5019003;28;20029;-75
2021/09/22 12:32:37;;;;;;;9.07;4.60;;;;;;;;;;5025753;28;20033;-74
2021/09/22 12:35:05;;;;;;;7.93;4.72;;;;;;;;;;5019728;28;20068;-74
2021/09/22 12:37:31;;;;;;;7.65;4.88;;;;;;;;;;5015135;28;20036;-74
2021/09/22 12:40:08;;;;;;;12.45;5.80;;;;;;;;;;5017598;28;20412;-75
2021/09/22 12:42:46;;;;;;;6.88;4.80;;;;;;;;;;5012971;28;20744;-75
2021/09/22 12:45:14;;;;;;;7.55;4.72;;;;;;;;;;4999668;28;20026;-76
2021/09/22 12:47:56;;;;;;;8.05;5.18;;;;;;;;;;5001295;28;20041;-75
2021/09/22 12:50:41;;;;;;;7.63;4.82;;;;;;;;;;5007997;28;20033;-76
2021/09/22 12:53:08;;;;;;;10.77;6.15;;;;;;;;;;4999306;28;20080;-75
2021/09/22 12:55:47;;;;;;;11.98;4.95;;;;;;;;;;5001190;28;20033;-75
2021/09/22 12:58:17;;;;;;;8.43;5.35;;;;;;;;;;5005535;28;20359;-75
2021/09/22 13:00:55;;;;;;;9.80;5.50;;;;;;;;;;5015363;28;20052;-75
2021/09/22 13:03:29;;;;;;;7.65;4.82;;;;;;;;;;5003270;28;20029;-75
2021/09/22 13:05:56;;;;;;;7.60;5.15;;;;;;;;;;4999420;28;20154;-75
2021/09/22 13:08:24;;;;;;;9.30;5.88;;;;;;;;;;4999276;28;20017;-75
2021/09/22 13:10:51;;;;;;;6.45;5.03;;;;;;;;;;4998549;28;20034;-75
2021/09/22 13:13:17;;;;;;;11.80;5.50;;;;;;;;;;4996772;28;20467;-75
2021/09/22 13:15:43;;;;;;;9.38;5.47;;;;;;;;;;4998213;28;20036;-76
2021/09/22 13:18:09;;;;;;;9.20;5.00;;;;;;;;;;4998015;28;20128;-75
2021/09/22 13:20:36;;;;;;;10.85;5.38;;;;;;;;;;5005232;28;20313;-75
2021/09/22 13:23:02;;;;;;;9.07;6.03;;;;;;;;;;5012849;28;20100;-75
2021/09/22 13:25:28;;;;;;;9.30;5.50;;;;;;;;;;5009416;28;20040;-75
2021/09/22 13:27:54;;;;;;;9.85;5.57;;;;;;;;;;5010367;28;20052;-75
2021/09/22 13:30:20;;;;;;;10.88;5.90;;;;;;;;;;5010965;28;20025;-75
2021/09/22 13:32:50;;;;;;;10.55;5.93;;;;;;;;;;5010362;28;20109;-75
2021/09/22 13:35:17;;;;;;;10.25;6.25;;;;;;;;;;5017166;28;20785;-75
2021/09/22 13:37:43;;;;;;;7.97;6.07;;;;;;;;;;5018985;28;20465;-75
2021/09/22 13:40:09;;;;;;;8.23;5.95;;;;;;;;;;5018328;28;20561;-76
2021/09/22 13:42:36;;;;;;;10.07;6.22;;;;;;;;;;5018757;28;20044;-75
2021/09/22 13:45:02;;;;;;;8.70;6.13;;;;;;;;;;5017820;28;20036;-75
2021/09/22 13:47:28;;;;;;;11.25;6.05;;;;;;;;;;5014143;28;20041;-75
2021/09/22 13:49:54;;;;;;;11.02;6.22;;;;;;;;;;5018612;28;20079;-75
2021/09/22 13:52:20;;;;;;;7.70;5.75;;;;;;;;;;5018438;28;20030;-75
2021/09/22 13:54:46;;;;;;;10.73;6.20;;;;;;;;;;5018596;28;20071;-75
2021/09/22 13:57:13;;;;;;;19.98;6.95;;;;;;;;;;5018236;28;20086;-76
2021/09/22 13:59:40;;;;;;;11.15;6.38;;;;;;;;;;5015315;28;20166;-75
2021/09/22 14:02:07;;;;;;;9.07;6.10;;;;;;;;;;5015209;28;20032;-75
2021/09/22 14:04:34;;;;;;;9.35;6.22;;;;;;;;;;5004574;28;20030;-75
2021/09/22 14:07:00;;;;;;;12.65;6.97;;;;;;;;;;5018522;28;20052;-74
2021/09/22 14:09:27;;;;;;;7.10;5.80;;;;;;;;;;5016303;28;20114;-74
2021/09/22 14:11:53;;;;;;;9.55;5.78;;;;;;;;;;5018437;28;20017;-74
2021/09/22 14:14:19;;;;;;;11.70;5.88;;;;;;;;;;5015848;28;20092;-75
2021/09/22 14:16:46;;;;;;;9.50;6.15;;;;;;;;;;5009686;28;20088;-74
2021/09/22 14:19:12;;;;;;;8.25;5.97;;;;;;;;;;5016047;28;20109;-73
2021/09/22 14:21:43;;;;;;;12.07;6.50;;;;;;;;;;5023043;28;20599;-73
2021/09/22 14:24:09;;;;;;;14.40;6.93;;;;;;;;;;5023725;28;20083;-74
2021/09/22 14:26:35;;;;;;;9.10;5.55;;;;;;;;;;5021371;28;20032;-73
2021/09/22 14:29:01;;;;;;;11.73;5.63;;;;;;;;;;5023011;28;20039;-73
2021/09/22 14:31:29;;;;;;;7.72;5.80;;;;;;;;;;5025420;28;20029;-73
2021/09/22 14:33:55;;;;;;;9.77;5.65;;;;;;;;;;5025011;28;20191;-73
2021/09/22 14:36:22;;;;;;;8.70;5.22;;;;;;;;;;5024802;28;20473;-73
2021/09/22 14:38:48;;;;;;;11.85;5.38;;;;;;;;;;5019738;28;20652;-73
2021/09/22 14:41:14;;;;;;;9.68;5.97;;;;;;;;;;5020671;28;20124;-73